sensor_id;sensor_type;location;lat;lon;timestamp;P1;durP1;ratioP1;P2;durP2;ratioP2
56457;SDS011;42360;42.918;12.366;2023-05-29T00:01:12;4.55;;;3.10;;
56457;SDS011;42360;42.918;12.366;2023-05-29T00:03:37;3.50;;;3.20;;
56457;SDS011;42360;42.918;12.366;2023-05-29T00:06:03;5.90;;;3.45;;
56457;SDS011;42360;42.918;12.366;2023-05-29T00:08:29;4.35;;;3.38;;
56457;SDS011;42360;42.918;12.366;2023-05-29T00:10:54;4.38;;;3.13;;
56457;SDS011;42360;42.918;12.366;2023-05-29T00:13:20;7.30;;;4.50;;
56457;SDS011;42360;42.918;12.366;2023-05-29T00:15:45;6.05;;;3.78;;
56457;SDS011;42360;42.918;12.366;2023-05-29T00:18:11;5.97;;;3.60;;
56457;SDS011;42360;42.918;12.366;2023-05-29T00:20:37;6.57;;;3.65;;
56457;SDS011;42360;42.918;12.366;2023-05-29T00:23:03;6.00;;;3.50;;
56457;SDS011;42360;42.918;12.366;2023-05-29T00:25:30;5.10;;;3.38;;
56457;SDS011;42360;42.918;12.366;2023-05-29T00:27:56;5.88;;;3.47;;
56457;SDS011;42360;42.918;12.366;2023-05-29T00:30:22;4.65;;;3.75;;
56457;SDS011;42360;42.918;12.366;2023-05-29T00:32:47;4.78;;;3.40;;
56457;SDS011;42360;42.918;12.366;2023-05-29T00:35:13;6.07;;;3.75;;
56457;SDS011;42360;42.918;12.366;2023-05-29T00:37:38;5.82;;;3.67;;
56457;SDS011;42360;42.918;12.366;2023-05-29T00:40:04;5.13;;;3.40;;
56457;SDS011;42360;42.918;12.366;2023-05-29T00:42:31;4.97;;;3.67;;
56457;SDS011;42360;42.918;12.366;2023-05-29T00:44:57;6.03;;;4.20;;
56457;SDS011;42360;42.918;12.366;2023-05-29T00:47:22;7.28;;;4.97;;
56457;SDS011;42360;42.918;12.366;2023-05-29T00:49:48;7.68;;;3.80;;
56457;SDS011;42360;42.918;12.366;2023-05-29T00:52:16;6.65;;;3.70;;
56457;SDS011;42360;42.918;12.366;2023-05-29T00:54:43;6.28;;;3.70;;
56457;SDS011;42360;42.918;12.366;2023-05-29T00:57:09;5.82;;;3.75;;
56457;SDS011;42360;42.918;12.366;2023-05-29T00:59:34;5.40;;;4.00;;
56457;SDS011;42360;42.918;12.366;2023-05-29T01:02:00;7.85;;;3.80;;
56457;SDS011;42360;42.918;12.366;2023-05-29T01:04:27;5.55;;;3.63;;
56457;SDS011;42360;42.918;12.366;2023-05-29T01:06:53;5.13;;;3.42;;
56457;SDS011;42360;42.918;12.366;2023-05-29T01:09:18;6.22;;;4.30;;
56457;SDS011;42360;42.918;12.366;2023-05-29T01:20:27;6.03;;;3.50;;
56457;SDS011;42360;42.918;12.366;2023-05-29T01:26:22;6.18;;;3.92;;
56457;SDS011;42360;42.918;12.366;2023-05-29T01:29:06;5.37;;;3.53;;
56457;SDS011;42360;42.918;12.366;2023-05-29T01:31:32;4.88;;;3.47;;
56457;SDS011;42360;42.918;12.366;2023-05-29T01:34:00;6.90;;;4.28;;
56457;SDS011;42360;42.918;12.366;2023-05-29T01:36:26;5.00;;;3.97;;
56457;SDS011;42360;42.918;12.366;2023-05-29T01:38:53;5.95;;;3.50;;
56457;SDS011;42360;42.918;12.366;2023-05-29T01:41:20;4.78;;;4.07;;
56457;SDS011;42360;42.918;12.366;2023-05-29T01:43:46;5.03;;;3.55;;
56457;SDS011;42360;42.918;12.366;2023-05-29T01:46:13;6.13;;;3.50;;
56457;SDS011;42360;42.918;12.366;2023-05-29T01:48:39;5.63;;;4.20;;
56457;SDS011;42360;42.918;12.366;2023-05-29T01:51:06;4.75;;;3.33;;
56457;SDS011;42360;42.918;12.366;2023-05-29T01:53:32;4.10;;;3.33;;
56457;SDS011;42360;42.918;12.366;2023-05-29T01:55:57;4.95;;;3.65;;
56457;SDS011;42360;42.918;12.366;2023-05-29T01:58:23;5.85;;;3.67;;
56457;SDS011;42360;42.918;12.366;2023-05-29T02:00:49;3.95;;;3.28;;
56457;SDS011;42360;42.918;12.366;2023-05-29T02:03:14;4.53;;;3.30;;
56457;SDS011;42360;42.918;12.366;2023-05-29T02:05:40;3.72;;;3.33;;
56457;SDS011;42360;42.918;12.366;2023-05-29T02:08:05;7.22;;;3.80;;
56457;SDS011;42360;42.918;12.366;2023-05-29T02:10:31;7.30;;;3.63;;
56457;SDS011;42360;42.918;12.366;2023-05-29T02:12:57;5.50;;;3.70;;
56457;SDS011;42360;42.918;12.366;2023-05-29T02:15:22;4.93;;;3.22;;
56457;SDS011;42360;42.918;12.366;2023-05-29T02:17:48;5.40;;;3.92;;
56457;SDS011;42360;42.918;12.366;2023-05-29T02:20:15;4.28;;;3.47;;
56457;SDS011;42360;42.918;12.366;2023-05-29T02:22:40;6.40;;;3.50;;
56457;SDS011;42360;42.918;12.366;2023-05-29T02:25:06;5.40;;;3.80;;
56457;SDS011;42360;42.918;12.366;2023-05-29T02:27:32;5.40;;;4.10;;
56457;SDS011;42360;42.918;12.366;2023-05-29T02:29:57;7.78;;;3.35;;
56457;SDS011;42360;42.918;12.366;2023-05-29T02:32:23;5.95;;;4.30;;
56457;SDS011;42360;42.918;12.366;2023-05-29T02:34:51;5.30;;;3.92;;
56457;SDS011;42360;42.918;12.366;2023-05-29T02:37:17;6.22;;;3.47;;
56457;SDS011;42360;42.918;12.366;2023-05-29T02:39:43;6.38;;;3.72;;
56457;SDS011;42360;42.918;12.366;2023-05-29T02:42:08;5.38;;;3.88;;
56457;SDS011;42360;42.918;12.366;2023-05-29T02:44:34;5.07;;;4.07;;
56457;SDS011;42360;42.918;12.366;2023-05-29T02:46:59;8.70;;;4.28;;
56457;SDS011;42360;42.918;12.366;2023-05-29T02:49:25;6.30;;;3.88;;
56457;SDS011;42360;42.918;12.366;2023-05-29T02:51:51;5.28;;;3.72;;
56457;SDS011;42360;42.918;12.366;2023-05-29T02:54:21;5.50;;;3.47;;
56457;SDS011;42360;42.918;12.366;2023-05-29T02:56:47;6.35;;;3.53;;
56457;SDS011;42360;42.918;12.366;2023-05-29T02:59:12;9.13;;;4.18;;
56457;SDS011;42360;42.918;12.366;2023-05-29T03:01:38;5.30;;;3.83;;
56457;SDS011;42360;42.918;12.366;2023-05-29T03:04:04;5.18;;;3.92;;
56457;SDS011;42360;42.918;12.366;2023-05-29T03:06:29;7.40;;;4.05;;
56457;SDS011;42360;42.918;12.366;2023-05-29T03:08:55;5.63;;;4.50;;
56457;SDS011;42360;42.918;12.366;2023-05-29T03:11:20;5.43;;;3.95;;
56457;SDS011;42360;42.918;12.366;2023-05-29T03:13:48;5.45;;;3.58;;
56457;SDS011;42360;42.918;12.366;2023-05-29T03:16:14;5.97;;;3.50;;
56457;SDS011;42360;42.918;12.366;2023-05-29T03:18:40;7.80;;;3.85;;
56457;SDS011;42360;42.918;12.366;2023-05-29T03:21:06;6.28;;;4.00;;
56457;SDS011;42360;42.918;12.366;2023-05-29T03:23:32;8.23;;;4.05;;
56457;SDS011;42360;42.918;12.366;2023-05-29T03:25:57;7.22;;;4.00;;
56457;SDS011;42360;42.918;12.366;2023-05-29T03:28:23;6.53;;;3.80;;
56457;SDS011;42360;42.918;12.366;2023-05-29T03:30:48;9.60;;;4.05;;
56457;SDS011;42360;42.918;12.366;2023-05-29T03:33:13;4.93;;;4.13;;
56457;SDS011;42360;42.918;12.366;2023-05-29T03:35:39;4.38;;;3.58;;
56457;SDS011;42360;42.918;12.366;2023-05-29T03:38:05;6.32;;;3.97;;
56457;SDS011;42360;42.918;12.366;2023-05-29T03:40:30;6.05;;;3.88;;
56457;SDS011;42360;42.918;12.366;2023-05-29T03:42:56;6.53;;;4.10;;
56457;SDS011;42360;42.918;12.366;2023-05-29T03:45:21;7.18;;;4.30;;
56457;SDS011;42360;42.918;12.366;2023-05-29T03:47:47;6.72;;;3.97;;
56457;SDS011;42360;42.918;12.366;2023-05-29T03:50:12;6.63;;;3.63;;
56457;SDS011;42360;42.918;12.366;2023-05-29T03:52:40;5.80;;;3.95;;
56457;SDS011;42360;42.918;12.366;2023-05-29T03:55:08;7.85;;;4.40;;
56457;SDS011;42360;42.918;12.366;2023-05-29T03:57:38;4.72;;;3.72;;
56457;SDS011;42360;42.918;12.366;2023-05-29T04:00:06;5.95;;;3.80;;
56457;SDS011;42360;42.918;12.366;2023-05-29T04:02:33;6.30;;;4.20;;
56457;SDS011;42360;42.918;12.366;2023-05-29T04:04:58;7.95;;;4.25;;
56457;SDS011;42360;42.918;12.366;2023-05-29T04:07:23;6.28;;;3.92;;
56457;SDS011;42360;42.918;12.366;2023-05-29T04:09:49;5.20;;;4.00;;
56457;SDS011;42360;42.918;12.366;2023-05-29T04:12:14;5.95;;;4.15;;
56457;SDS011;42360;42.918;12.366;2023-05-29T04:14:41;6.95;;;3.88;;
56457;SDS011;42360;42.918;12.366;2023-05-29T04:17:07;5.57;;;3.90;;
56457;SDS011;42360;42.918;12.366;2023-05-29T04:19:32;5.32;;;3.90;;
56457;SDS011;42360;42.918;12.366;2023-05-29T04:21:58;7.72;;;3.85;;
56457;SDS011;42360;42.918;12.366;2023-05-29T04:24:23;7.15;;;4.25;;
56457;SDS011;42360;42.918;12.366;2023-05-29T04:26:49;5.00;;;3.90;;
56457;SDS011;42360;42.918;12.366;2023-05-29T04:29:16;7.57;;;4.13;;
56457;SDS011;42360;42.918;12.366;2023-05-29T04:31:42;5.78;;;4.38;;
56457;SDS011;42360;42.918;12.366;2023-05-29T04:34:07;6.18;;;3.92;;
56457;SDS011;42360;42.918;12.366;2023-05-29T04:36:33;8.23;;;3.65;;
56457;SDS011;42360;42.918;12.366;2023-05-29T04:39:03;4.57;;;3.73;;
56457;SDS011;42360;42.918;12.366;2023-05-29T04:41:33;6.80;;;3.80;;
56457;SDS011;42360;42.918;12.366;2023-05-29T04:43:58;6.15;;;3.90;;
56457;SDS011;42360;42.918;12.366;2023-05-29T04:46:24;9.05;;;3.75;;
56457;SDS011;42360;42.918;12.366;2023-05-29T04:48:51;6.10;;;4.30;;
56457;SDS011;42360;42.918;12.366;2023-05-29T04:51:22;9.27;;;4.50;;
56457;SDS011;42360;42.918;12.366;2023-05-29T04:53:48;7.45;;;4.13;;
56457;SDS011;42360;42.918;12.366;2023-05-29T04:56:16;6.82;;;4.10;;
56457;SDS011;42360;42.918;12.366;2023-05-29T04:58:42;9.77;;;4.53;;
56457;SDS011;42360;42.918;12.366;2023-05-29T05:01:08;6.18;;;4.03;;
56457;SDS011;42360;42.918;12.366;2023-05-29T05:03:34;8.65;;;4.45;;
56457;SDS011;42360;42.918;12.366;2023-05-29T05:06:00;5.57;;;3.92;;
56457;SDS011;42360;42.918;12.366;2023-05-29T05:08:28;4.65;;;3.60;;
56457;SDS011;42360;42.918;12.366;2023-05-29T05:10:54;9.18;;;4.35;;
56457;SDS011;42360;42.918;12.366;2023-05-29T05:13:20;7.05;;;5.72;;
56457;SDS011;42360;42.918;12.366;2023-05-29T05:15:45;5.80;;;3.80;;
56457;SDS011;42360;42.918;12.366;2023-05-29T05:18:11;6.00;;;4.35;;
56457;SDS011;42360;42.918;12.366;2023-05-29T05:20:37;5.68;;;4.53;;
56457;SDS011;42360;42.918;12.366;2023-05-29T05:23:02;7.43;;;4.45;;
56457;SDS011;42360;42.918;12.366;2023-05-29T05:25:28;7.18;;;4.13;;
56457;SDS011;42360;42.918;12.366;2023-05-29T05:27:53;9.98;;;4.10;;
56457;SDS011;42360;42.918;12.366;2023-05-29T05:30:19;5.28;;;3.90;;
56457;SDS011;42360;42.918;12.366;2023-05-29T05:32:45;6.25;;;3.85;;
56457;SDS011;42360;42.918;12.366;2023-05-29T05:35:10;5.53;;;3.90;;
56457;SDS011;42360;42.918;12.366;2023-05-29T05:37:36;8.05;;;4.55;;
56457;SDS011;42360;42.918;12.366;2023-05-29T05:40:03;7.78;;;4.10;;
56457;SDS011;42360;42.918;12.366;2023-05-29T05:42:31;5.78;;;4.20;;
56457;SDS011;42360;42.918;12.366;2023-05-29T05:44:57;6.07;;;4.72;;
56457;SDS011;42360;42.918;12.366;2023-05-29T05:47:22;6.72;;;4.72;;
56457;SDS011;42360;42.918;12.366;2023-05-29T05:49:48;7.97;;;4.63;;
56457;SDS011;42360;42.918;12.366;2023-05-29T05:52:14;7.03;;;4.55;;
56457;SDS011;42360;42.918;12.366;2023-05-29T05:54:41;8.88;;;5.07;;
56457;SDS011;42360;42.918;12.366;2023-05-29T05:57:07;7.90;;;5.35;;
56457;SDS011;42360;42.918;12.366;2023-05-29T05:59:33;7.00;;;5.30;;
56457;SDS011;42360;42.918;12.366;2023-05-29T06:01:59;7.50;;;5.32;;
56457;SDS011;42360;42.918;12.366;2023-05-29T06:04:24;7.20;;;5.10;;
56457;SDS011;42360;42.918;12.366;2023-05-29T06:06:50;12.07;;;5.22;;
56457;SDS011;42360;42.918;12.366;2023-05-29T06:09:15;9.02;;;5.30;;
56457;SDS011;42360;42.918;12.366;2023-05-29T06:11:41;8.25;;;5.60;;
56457;SDS011;42360;42.918;12.366;2023-05-29T06:14:06;7.55;;;5.68;;
56457;SDS011;42360;42.918;12.366;2023-05-29T06:16:32;8.07;;;5.95;;
56457;SDS011;42360;42.918;12.366;2023-05-29T06:18:57;8.35;;;5.03;;
56457;SDS011;42360;42.918;12.366;2023-05-29T06:21:23;8.25;;;5.22;;
56457;SDS011;42360;42.918;12.366;2023-05-29T06:23:48;7.35;;;5.07;;
56457;SDS011;42360;42.918;12.366;2023-05-29T06:26:14;8.40;;;5.28;;
56457;SDS011;42360;42.918;12.366;2023-05-29T06:28:41;7.80;;;5.25;;
56457;SDS011;42360;42.918;12.366;2023-05-29T06:31:06;7.28;;;5.47;;
56457;SDS011;42360;42.918;12.366;2023-05-29T06:33:32;9.05;;;5.57;;
56457;SDS011;42360;42.918;12.366;2023-05-29T06:35:57;7.35;;;4.97;;
56457;SDS011;42360;42.918;12.366;2023-05-29T06:38:23;7.38;;;5.43;;
56457;SDS011;42360;42.918;12.366;2023-05-29T06:40:48;8.82;;;5.45;;
56457;SDS011;42360;42.918;12.366;2023-05-29T06:43:14;7.28;;;5.78;;
56457;SDS011;42360;42.918;12.366;2023-05-29T06:45:40;9.07;;;5.57;;
56457;SDS011;42360;42.918;12.366;2023-05-29T06:48:08;7.30;;;5.18;;
56457;SDS011;42360;42.918;12.366;2023-05-29T06:50:33;7.55;;;5.47;;
56457;SDS011;42360;42.918;12.366;2023-05-29T06:52:59;6.57;;;5.03;;
56457;SDS011;42360;42.918;12.366;2023-05-29T06:55:24;8.25;;;5.25;;
56457;SDS011;42360;42.918;12.366;2023-05-29T06:57:50;6.75;;;5.20;;
56457;SDS011;42360;42.918;12.366;2023-05-29T07:00:16;9.10;;;5.32;;
56457;SDS011;42360;42.918;12.366;2023-05-29T07:02:42;7.22;;;5.05;;
56457;SDS011;42360;42.918;12.366;2023-05-29T07:05:08;6.32;;;5.35;;
56457;SDS011;42360;42.918;12.366;2023-05-29T07:07:35;6.38;;;5.15;;
56457;SDS011;42360;42.918;12.366;2023-05-29T07:10:00;7.68;;;5.65;;
56457;SDS011;42360;42.918;12.366;2023-05-29T07:12:26;9.63;;;5.53;;
56457;SDS011;42360;42.918;12.366;2023-05-29T07:14:51;6.90;;;4.93;;
56457;SDS011;42360;42.918;12.366;2023-05-29T07:17:17;7.72;;;4.88;;
56457;SDS011;42360;42.918;12.366;2023-05-29T07:19:42;6.50;;;5.00;;
56457;SDS011;42360;42.918;12.366;2023-05-29T07:22:08;6.50;;;5.07;;
56457;SDS011;42360;42.918;12.366;2023-05-29T07:24:34;9.82;;;5.65;;
56457;SDS011;42360;42.918;12.366;2023-05-29T07:26:59;6.82;;;5.00;;
56457;SDS011;42360;42.918;12.366;2023-05-29T07:29:25;7.32;;;5.00;;
56457;SDS011;42360;42.918;12.366;2023-05-29T07:31:51;7.75;;;5.80;;
56457;SDS011;42360;42.918;12.366;2023-05-29T07:34:16;6.82;;;5.30;;
56457;SDS011;42360;42.918;12.366;2023-05-29T07:36:59;8.50;;;5.25;;
56457;SDS011;42360;42.918;12.366;2023-05-29T07:39:26;7.25;;;5.03;;
56457;SDS011;42360;42.918;12.366;2023-05-29T07:41:52;7.07;;;5.25;;
56457;SDS011;42360;42.918;12.366;2023-05-29T07:44:18;6.65;;;4.90;;
56457;SDS011;42360;42.918;12.366;2023-05-29T07:46:44;7.00;;;5.22;;
56457;SDS011;42360;42.918;12.366;2023-05-29T07:49:10;8.07;;;5.18;;
56457;SDS011;42360;42.918;12.366;2023-05-29T07:51:36;8.00;;;5.05;;
56457;SDS011;42360;42.918;12.366;2023-05-29T07:54:02;6.97;;;4.68;;
56457;SDS011;42360;42.918;12.366;2023-05-29T07:56:27;5.30;;;4.80;;
56457;SDS011;42360;42.918;12.366;2023-05-29T07:58:53;6.70;;;4.65;;
56457;SDS011;42360;42.918;12.366;2023-05-29T08:01:20;5.93;;;4.10;;
56457;SDS011;42360;42.918;12.366;2023-05-29T08:03:46;8.02;;;5.18;;
56457;SDS011;42360;42.918;12.366;2023-05-29T08:06:12;5.82;;;5.05;;
56457;SDS011;42360;42.918;12.366;2023-05-29T08:08:38;5.63;;;4.40;;
56457;SDS011;42360;42.918;12.366;2023-05-29T08:11:05;6.28;;;5.10;;
56457;SDS011;42360;42.918;12.366;2023-05-29T08:13:31;6.10;;;4.45;;
56457;SDS011;42360;42.918;12.366;2023-05-29T08:15:56;7.40;;;4.50;;
56457;SDS011;42360;42.918;12.366;2023-05-29T08:18:24;8.05;;;4.95;;
56457;SDS011;42360;42.918;12.366;2023-05-29T08:20:50;6.25;;;4.45;;
56457;SDS011;42360;42.918;12.366;2023-05-29T08:23:16;7.22;;;5.00;;
56457;SDS011;42360;42.918;12.366;2023-05-29T08:25:42;7.60;;;4.70;;
56457;SDS011;42360;42.918;12.366;2023-05-29T08:28:07;7.13;;;4.75;;
56457;SDS011;42360;42.918;12.366;2023-05-29T08:30:33;6.65;;;5.00;;
56457;SDS011;42360;42.918;12.366;2023-05-29T08:32:58;8.13;;;4.80;;
56457;SDS011;42360;42.918;12.366;2023-05-29T08:35:24;5.07;;;3.97;;
56457;SDS011;42360;42.918;12.366;2023-05-29T08:37:49;6.82;;;4.80;;
56457;SDS011;42360;42.918;12.366;2023-05-29T08:40:15;6.85;;;5.07;;
56457;SDS011;42360;42.918;12.366;2023-05-29T08:42:47;5.38;;;4.45;;
56457;SDS011;42360;42.918;12.366;2023-05-29T08:45:44;6.88;;;5.05;;
56457;SDS011;42360;42.918;12.366;2023-05-29T08:48:10;5.35;;;4.35;;
56457;SDS011;42360;42.918;12.366;2023-05-29T08:50:39;6.28;;;4.78;;
56457;SDS011;42360;42.918;12.366;2023-05-29T08:53:09;6.75;;;4.30;;
56457;SDS011;42360;42.918;12.366;2023-05-29T08:55:35;6.90;;;5.05;;
56457;SDS011;42360;42.918;12.366;2023-05-29T08:58:01;6.43;;;4.43;;
56457;SDS011;42360;42.918;12.366;2023-05-29T09:00:26;8.07;;;5.32;;
56457;SDS011;42360;42.918;12.366;2023-05-29T09:02:54;6.28;;;4.13;;
56457;SDS011;42360;42.918;12.366;2023-05-29T09:05:20;5.32;;;4.40;;
56457;SDS011;42360;42.918;12.366;2023-05-29T09:07:46;12.80;;;5.20;;
56457;SDS011;42360;42.918;12.366;2023-05-29T09:10:14;5.20;;;4.50;;
56457;SDS011;42360;42.918;12.366;2023-05-29T09:12:40;5.10;;;4.60;;
56457;SDS011;42360;42.918;12.366;2023-05-29T09:15:27;9.13;;;4.47;;
56457;SDS011;42360;42.918;12.366;2023-05-29T09:17:56;7.22;;;4.85;;
56457;SDS011;42360;42.918;12.366;2023-05-29T09:20:22;7.73;;;4.97;;
56457;SDS011;42360;42.918;12.366;2023-05-29T09:22:59;6.63;;;4.75;;
56457;SDS011;42360;42.918;12.366;2023-05-29T09:25:30;6.80;;;4.33;;
56457;SDS011;42360;42.918;12.366;2023-05-29T09:30:57;7.22;;;4.60;;
56457;SDS011;42360;42.918;12.366;2023-05-29T09:33:16;6.43;;;4.43;;
56457;SDS011;42360;42.918;12.366;2023-05-29T09:35:45;7.63;;;4.60;;
56457;SDS011;42360;42.918;12.366;2023-05-29T09:38:13;6.03;;;4.40;;
56457;SDS011;42360;42.918;12.366;2023-05-29T09:40:40;6.13;;;4.53;;
56457;SDS011;42360;42.918;12.366;2023-05-29T09:43:10;7.88;;;4.38;;
56457;SDS011;42360;42.918;12.366;2023-05-29T09:45:40;6.10;;;4.57;;
56457;SDS011;42360;42.918;12.366;2023-05-29T09:48:07;5.35;;;4.30;;
56457;SDS011;42360;42.918;12.366;2023-05-29T09:50:34;7.85;;;4.70;;
56457;SDS011;42360;42.918;12.366;2023-05-29T09:53:00;6.32;;;4.55;;
56457;SDS011;42360;42.918;12.366;2023-05-29T09:55:27;5.55;;;4.60;;
56457;SDS011;42360;42.918;12.366;2023-05-29T09:57:54;5.57;;;4.05;;
56457;SDS011;42360;42.918;12.366;2023-05-29T10:00:19;6.60;;;4.10;;
56457;SDS011;42360;42.918;12.366;2023-05-29T10:02:46;4.80;;;3.70;;
56457;SDS011;42360;42.918;12.366;2023-05-29T10:05:13;5.50;;;3.80;;
56457;SDS011;42360;42.918;12.366;2023-05-29T10:07:42;4.35;;;3.90;;
56457;SDS011;42360;42.918;12.366;2023-05-29T10:10:12;6.25;;;4.35;;
56457;SDS011;42360;42.918;12.366;2023-05-29T10:12:38;6.25;;;4.20;;
56457;SDS011;42360;42.918;12.366;2023-05-29T10:15:16;5.40;;;4.03;;
56457;SDS011;42360;42.918;12.366;2023-05-29T10:17:53;6.35;;;4.20;;
56457;SDS011;42360;42.918;12.366;2023-05-29T10:20:25;4.43;;;4.03;;
56457;SDS011;42360;42.918;12.366;2023-05-29T10:22:52;6.63;;;3.72;;
56457;SDS011;42360;42.918;12.366;2023-05-29T10:25:20;4.28;;;3.78;;
56457;SDS011;42360;42.918;12.366;2023-05-29T10:27:48;4.32;;;3.45;;
56457;SDS011;42360;42.918;12.366;2023-05-29T10:35:51;4.10;;;3.60;;
56457;SDS011;42360;42.918;12.366;2023-05-29T10:44:02;3.70;;;3.40;;
56457;SDS011;42360;42.918;12.366;2023-05-29T10:49:22;5.28;;;3.92;;
56457;SDS011;42360;42.918;12.366;2023-05-29T10:51:47;4.13;;;3.58;;
56457;SDS011;42360;42.918;12.366;2023-05-29T10:54:14;5.15;;;3.83;;
56457;SDS011;42360;42.918;12.366;2023-05-29T10:56:40;5.40;;;3.83;;
56457;SDS011;42360;42.918;12.366;2023-05-29T10:59:07;6.10;;;3.95;;
56457;SDS011;42360;42.918;12.366;2023-05-29T11:01:33;6.18;;;3.70;;
56457;SDS011;42360;42.918;12.366;2023-05-29T11:06:42;5.35;;;3.85;;
56457;SDS011;42360;42.918;12.366;2023-05-29T11:09:41;4.90;;;3.67;;
56457;SDS011;42360;42.918;12.366;2023-05-29T11:12:10;4.60;;;3.78;;
56457;SDS011;42360;42.918;12.366;2023-05-29T11:20:08;4.57;;;3.65;;
56457;SDS011;42360;42.918;12.366;2023-05-29T11:23:01;4.30;;;3.85;;
56457;SDS011;42360;42.918;12.366;2023-05-29T11:25:28;4.93;;;3.60;;
56457;SDS011;42360;42.918;12.366;2023-05-29T11:27:58;4.28;;;3.63;;
56457;SDS011;42360;42.918;12.366;2023-05-29T11:30:23;4.50;;;3.92;;
56457;SDS011;42360;42.918;12.366;2023-05-29T11:32:49;3.78;;;3.47;;
56457;SDS011;42360;42.918;12.366;2023-05-29T11:35:17;4.95;;;3.80;;
56457;SDS011;42360;42.918;12.366;2023-05-29T11:37:44;4.57;;;4.18;;
56457;SDS011;42360;42.918;12.366;2023-05-29T11:40:13;4.30;;;3.50;;
56457;SDS011;42360;42.918;12.366;2023-05-29T11:42:42;4.13;;;3.72;;
56457;SDS011;42360;42.918;12.366;2023-05-29T11:47:56;5.45;;;3.70;;
56457;SDS011;42360;42.918;12.366;2023-05-29T11:50:23;4.40;;;3.70;;
56457;SDS011;42360;42.918;12.366;2023-05-29T11:52:50;4.85;;;3.85;;
56457;SDS011;42360;42.918;12.366;2023-05-29T11:55:19;5.13;;;3.80;;
56457;SDS011;42360;42.918;12.366;2023-05-29T11:57:46;6.50;;;3.58;;
56457;SDS011;42360;42.918;12.366;2023-05-29T12:00:13;4.50;;;3.80;;
56457;SDS011;42360;42.918;12.366;2023-05-29T12:02:40;5.05;;;3.75;;
56457;SDS011;42360;42.918;12.366;2023-05-29T12:05:07;4.50;;;3.30;;
56457;SDS011;42360;42.918;12.366;2023-05-29T12:07:33;5.60;;;4.22;;
56457;SDS011;42360;42.918;12.366;2023-05-29T12:10:11;4.20;;;3.47;;
56457;SDS011;42360;42.918;12.366;2023-05-29T12:12:38;5.38;;;3.40;;
56457;SDS011;42360;42.918;12.366;2023-05-29T12:15:05;5.85;;;3.60;;
56457;SDS011;42360;42.918;12.366;2023-05-29T12:17:32;4.40;;;3.38;;
56457;SDS011;42360;42.918;12.366;2023-05-29T12:19:58;3.80;;;3.40;;
56457;SDS011;42360;42.918;12.366;2023-05-29T12:22:34;5.18;;;3.53;;
56457;SDS011;42360;42.918;12.366;2023-05-29T12:25:07;4.05;;;3.65;;
56457;SDS011;42360;42.918;12.366;2023-05-29T12:27:35;4.10;;;3.60;;
56457;SDS011;42360;42.918;12.366;2023-05-29T12:30:06;5.50;;;3.50;;
56457;SDS011;42360;42.918;12.366;2023-05-29T12:32:37;4.90;;;3.28;;
56457;SDS011;42360;42.918;12.366;2023-05-29T12:35:16;4.63;;;3.25;;
56457;SDS011;42360;42.918;12.366;2023-05-29T12:40:24;4.15;;;3.67;;
56457;SDS011;42360;42.918;12.366;2023-05-29T12:42:53;4.82;;;3.40;;
56457;SDS011;42360;42.918;12.366;2023-05-29T12:45:21;4.15;;;3.40;;
56457;SDS011;42360;42.918;12.366;2023-05-29T12:47:56;3.70;;;2.90;;
56457;SDS011;42360;42.918;12.366;2023-05-29T12:50:29;3.78;;;3.47;;
56457;SDS011;42360;42.918;12.366;2023-05-29T12:55:28;5.43;;;3.30;;
56457;SDS011;42360;42.918;12.366;2023-05-29T12:57:55;4.00;;;3.28;;
56457;SDS011;42360;42.918;12.366;2023-05-29T13:00:22;4.32;;;3.20;;
56457;SDS011;42360;42.918;12.366;2023-05-29T13:02:48;3.78;;;3.35;;
56457;SDS011;42360;42.918;12.366;2023-05-29T13:05:14;5.63;;;3.35;;
56457;SDS011;42360;42.918;12.366;2023-05-29T13:07:40;4.55;;;3.00;;
56457;SDS011;42360;42.918;12.366;2023-05-29T13:10:06;4.88;;;3.45;;
56457;SDS011;42360;42.918;12.366;2023-05-29T13:12:32;3.63;;;2.80;;
56457;SDS011;42360;42.918;12.366;2023-05-29T13:14:59;5.00;;;3.25;;
56457;SDS011;42360;42.918;12.366;2023-05-29T13:17:24;4.80;;;3.40;;
56457;SDS011;42360;42.918;12.366;2023-05-29T13:19:50;4.15;;;3.50;;
56457;SDS011;42360;42.918;12.366;2023-05-29T13:22:15;5.05;;;3.35;;
56457;SDS011;42360;42.918;12.366;2023-05-29T13:24:41;3.95;;;3.40;;
56457;SDS011;42360;42.918;12.366;2023-05-29T13:27:06;4.55;;;3.70;;
56457;SDS011;42360;42.918;12.366;2023-05-29T13:29:32;6.30;;;3.53;;
56457;SDS011;42360;42.918;12.366;2023-05-29T13:31:58;5.00;;;3.72;;
56457;SDS011;42360;42.918;12.366;2023-05-29T13:34:23;5.15;;;3.78;;
56457;SDS011;42360;42.918;12.366;2023-05-29T13:36:53;7.20;;;3.65;;
56457;SDS011;42360;42.918;12.366;2023-05-29T13:39:20;5.63;;;3.88;;
56457;SDS011;42360;42.918;12.366;2023-05-29T13:41:45;3.97;;;3.58;;
56457;SDS011;42360;42.918;12.366;2023-05-29T13:44:11;5.40;;;3.45;;
56457;SDS011;42360;42.918;12.366;2023-05-29T13:46:37;4.10;;;3.45;;
56457;SDS011;42360;42.918;12.366;2023-05-29T13:49:02;4.75;;;3.20;;
56457;SDS011;42360;42.918;12.366;2023-05-29T13:51:28;7.10;;;3.47;;
56457;SDS011;42360;42.918;12.366;2023-05-29T13:53:53;5.80;;;3.35;;
56457;SDS011;42360;42.918;12.366;2023-05-29T13:56:19;6.03;;;3.90;;
56457;SDS011;42360;42.918;12.366;2023-05-29T13:58:44;6.00;;;3.97;;
56457;SDS011;42360;42.918;12.366;2023-05-29T14:01:10;5.13;;;3.55;;
56457;SDS011;42360;42.918;12.366;2023-05-29T14:03:35;6.65;;;3.70;;
56457;SDS011;42360;42.918;12.366;2023-05-29T14:06:01;5.03;;;4.60;;
56457;SDS011;42360;42.918;12.366;2023-05-29T14:08:30;4.88;;;3.83;;
56457;SDS011;42360;42.918;12.366;2023-05-29T14:10:58;4.03;;;3.60;;
56457;SDS011;42360;42.918;12.366;2023-05-29T14:13:24;4.70;;;3.58;;
56457;SDS011;42360;42.918;12.366;2023-05-29T14:15:49;6.30;;;4.18;;
56457;SDS011;42360;42.918;12.366;2023-05-29T14:18:15;5.97;;;4.15;;
56457;SDS011;42360;42.918;12.366;2023-05-29T14:20:41;5.43;;;4.05;;
56457;SDS011;42360;42.918;12.366;2023-05-29T14:23:06;6.25;;;4.38;;
56457;SDS011;42360;42.918;12.366;2023-05-29T14:25:38;7.68;;;4.10;;
56457;SDS011;42360;42.918;12.366;2023-05-29T14:28:04;4.43;;;4.03;;
56457;SDS011;42360;42.918;12.366;2023-05-29T14:30:31;4.55;;;3.50;;
56457;SDS011;42360;42.918;12.366;2023-05-29T14:32:57;5.25;;;3.88;;
56457;SDS011;42360;42.918;12.366;2023-05-29T14:35:22;5.20;;;3.55;;
56457;SDS011;42360;42.918;12.366;2023-05-29T14:37:48;4.63;;;3.78;;
56457;SDS011;42360;42.918;12.366;2023-05-29T14:40:14;3.78;;;3.35;;
56457;SDS011;42360;42.918;12.366;2023-05-29T14:42:39;7.60;;;3.78;;
56457;SDS011;42360;42.918;12.366;2023-05-29T14:45:05;5.97;;;3.10;;
56457;SDS011;42360;42.918;12.366;2023-05-29T14:47:31;4.65;;;2.92;;
56457;SDS011;42360;42.918;12.366;2023-05-29T14:49:56;3.30;;;2.70;;
56457;SDS011;42360;42.918;12.366;2023-05-29T14:52:22;4.68;;;3.03;;
56457;SDS011;42360;42.918;12.366;2023-05-29T14:54:47;4.93;;;3.20;;
56457;SDS011;42360;42.918;12.366;2023-05-29T14:57:13;4.35;;;3.10;;
56457;SDS011;42360;42.918;12.366;2023-05-29T14:59:38;3.38;;;2.90;;
56457;SDS011;42360;42.918;12.366;2023-05-29T15:02:04;3.45;;;2.80;;
56457;SDS011;42360;42.918;12.366;2023-05-29T15:04:30;5.70;;;4.03;;
56457;SDS011;42360;42.918;12.366;2023-05-29T15:06:55;3.97;;;3.10;;
56457;SDS011;42360;42.918;12.366;2023-05-29T15:09:21;5.65;;;3.10;;
56457;SDS011;42360;42.918;12.366;2023-05-29T15:11:47;4.80;;;3.40;;
56457;SDS011;42360;42.918;12.366;2023-05-29T15:14:12;4.45;;;2.70;;
56457;SDS011;42360;42.918;12.366;2023-05-29T15:16:39;5.43;;;3.47;;